METAR Data
IDs: Format: Raw Decoded Include TAF

Data at: 1056 UTC 18 Jan 2022

KBAC 181055Z AUTO 19006G11KT 9SM FEW095 M05/M05 A2938 RMK AO2
KBAC 181035Z AUTO 18009KT 7SM SCT095 M05/M05 A2939 RMK AO2
KBAC 181015Z AUTO 17004KT 7SM CLR M05/M05 A2941 RMK AO2
KBAC 180955Z AUTO 16006KT 7SM SCT120 M05/M05 A2942 RMK AO2
KBAC 180935Z AUTO 17004KT 6SM BR BKN120 M05/M05 A2943 RMK AO2
KBAC 180915Z AUTO 17005G11KT 6SM BR SCT110 M05/M04 A2945 RMK AO2
KBAC 180855Z AUTO 17009KT 6SM BR SCT110 M04/M04 A2946 RMK AO2
KBAC 180835Z AUTO VRB03KT 5SM BR M05/M05 A2948 RMK AO2
KBAC 180815Z AUTO 18009KT 5SM BR CLR M05/M05 A2947 RMK AO2
KBAC 180755Z AUTO 18009KT 4SM BR FEW003 FEW017 SCT110 M05/M05 A2947 RMK AO2
KBAC 180735Z AUTO 17008KT 4SM BR FEW003 FEW017 OVC110 M05/M05 A2950 RMK AO2
KBAC 180715Z AUTO 17008KT 4SM BR BKN003 OVC110 M05/M04 A2951 RMK AO2
KBAC 180655Z AUTO 15007KT 3SM BR BKN003 OVC100 M05/M04 A2953 RMK AO2
KBAC 180635Z AUTO 13005KT 3SM BR OVC004 M05/M05 A2956 RMK AO2
KBAC 180615Z AUTO 12004KT 4SM BR M05/M05 A2958 RMK AO2
KBAC 180555Z AUTO 15004KT 4SM BR M05/M05 A2960 RMK AO2
KBAC 180535Z AUTO 14008KT 4SM BR M05/M05 A2960 RMK AO2
KBAC 180515Z AUTO 10007KT 4SM BR M05/M05 A2962 RMK AO2
KBAC 180455Z AUTO 11006KT 3SM BR M05/M05 A2962 RMK AO2
KBAC 180435Z AUTO 12008KT 2 1/2SM BR M05/M05 A2963 RMK AO2
KBAC 180415Z AUTO 11008KT 2SM BR M05/M05 A2964 RMK AO2
KBAC 180355Z AUTO 11008KT 1 1/2SM BR M05/M05 A2966 RMK AO2
KBAC 180335Z AUTO 11009KT 3/4SM BR M05/M05 A2967 RMK AO2
KBAC 180315Z AUTO 12011KT 1SM BR M05/M05 A2968 RMK AO2
KBAC 180255Z AUTO 11007KT 1/4SM FZFG OVC002 M05/M05 A2970 RMK AO2
KBAC 180235Z AUTO 10009KT 1/2SM FZFG OVC002 M05/M05 A2971 RMK AO2
KBAC 180215Z AUTO 10010KT 3/4SM BR OVC002 M05/M05 A2972 RMK AO2
KBAC 180155Z AUTO 10009KT 1 3/4SM BR OVC003 M04/M04 A2973 RMK AO2
KBAC 180135Z AUTO 10008KT 2SM BR OVC003 M04/M04 A2974 RMK AO2
KBAC 180115Z AUTO 11010KT 4SM BR OVC003 M04/M04 A2972 RMK AO2
KBAC 180055Z AUTO 11007KT 6SM BR OVC004 M04/M04 A2974 RMK AO2
KBAC 180035Z AUTO 09009KT 7SM OVC004 M04/M04 A2974 RMK AO2
KBAC 180015Z AUTO 07009KT 6SM BR OVC004 M04/M04 A2975 RMK AO2
KBAC 172355Z AUTO 07011KT 7SM OVC004 M04/M04 A2974 RMK AO2
KBAC 172335Z AUTO 08009KT 6SM BR OVC004 M04/M04 A2974 RMK AO2
KBAC 172315Z AUTO 08010KT 7SM OVC005 M04/M04 A2974 RMK AO2
KBAC 172255Z AUTO 08009KT 7SM OVC005 M04/M03 A2975 RMK AO2
KBAC 172235Z AUTO 08008KT 8SM BKN005 OVC085 M03/M03 A2974 RMK AO2
KBAC 172215Z AUTO 08008KT 8SM SCT006 OVC085 M03/M03 A2974 RMK AO2
KBAC 172155Z AUTO 07009KT 9SM SCT006 SCT075 OVC085 M03/M03 A2975 RMK AO2
KBAC 172135Z AUTO 08009KT 9SM SCT065 BKN075 OVC085 M03/M03 A2976 RMK AO2
KBAC 172115Z AUTO 07008KT 9SM OVC065 M03/M03 A2976 RMK AO2
KBAC 172055Z AUTO 07009KT 10SM OVC065 M03/M03 A2976 RMK AO2
KBAC 172035Z AUTO 06007KT 10SM OVC065 M03/M03 A2976 RMK AO2
KBAC 172015Z AUTO 08008KT 10SM OVC070 M02/M03 A2975 RMK AO2
KBAC 171955Z AUTO 07009KT 10SM OVC065 M02/M03 A2976 RMK AO2
KBAC 171935Z AUTO 06008KT 10SM OVC070 M01/M03 A2977 RMK AO2
KBAC 171915Z AUTO 08006KT 10SM OVC070 M01/M02 A2976 RMK AO2
KBAC 171855Z AUTO 06007KT 10SM UP OVC070 M01/M02 A2979 RMK AO2
KBAC 171835Z AUTO 00000KT 10SM OVC065 M01/M02 A2977 RMK AO2
KBAC 171815Z AUTO 00000KT 10SM OVC065 M02/M02 A2977 RMK AO2
KBAC 171755Z AUTO 00000KT 10SM OVC065 M02/M02 A2978 RMK AO2
KBAC 171735Z AUTO 21004KT 10SM OVC065 M03/M03 A2978 RMK AO2
KBAC 171715Z AUTO 22004KT 10SM OVC065 M03/M03 A2979 RMK AO2
KBAC 171655Z AUTO 00000KT 9SM OVC065 M03/M03 A2979 RMK AO2
KBAC 171635Z AUTO 00000KT 10SM OVC070 M03/M03 A2980 RMK AO2
KBAC 171615Z AUTO 03006KT 10SM OVC070 M03/M03 A2980 RMK AO2
KBAC 171555Z AUTO 06005KT 10SM UP OVC070 M04/M04 A2979 RMK AO2
KBAC 171535Z AUTO 00000KT 10SM OVC070 M02/M03 A2979 RMK AO2
KBAC 171515Z AUTO 00000KT 10SM BKN075 OVC090 M03/M03 A2979 RMK AO2
KBAC 171455Z AUTO 25007KT 10SM SCT080 OVC095 M03/M03 A2978 RMK AO2
KBAC 171435Z AUTO 25008KT 10SM BKN075 BKN100 M04/M04 A2978 RMK AO2
KBAC 171415Z AUTO 25010KT 10SM SCT060 SCT070 BKN080 M04/M04 A2978 RMK AO2
KBAC 171355Z AUTO 26010KT 10SM M03/M03 A2978 RMK AO2
KBAC 171335Z AUTO 26010KT 10SM SCT065 OVC075 M04/M03 A2978 RMK AO2
KBAC 171315Z AUTO 26011KT 10SM BKN075 BKN080 OVC100 M03/M03 A2979 RMK AO2
KBAC 171255Z AUTO 26010KT 10SM BKN080 BKN085 OVC100 M03/M03 A2980 RMK AO2
KBAC 171235Z AUTO 26010KT 10SM BKN080 OVC100 M03/M03 A2980 RMK AO2
KBAC 171215Z AUTO 26010KT 10SM BKN090 OVC120 M04/M04 A2979 RMK AO2
KBAC 171155Z AUTO 27009KT 10SM FEW060 FEW095 OVC120 M04/M04 A2979 RMK AO2
KBAC 171135Z AUTO 27010KT 10SM SCT060 BKN070 OVC120 M04/M04 A2979 RMK AO2
KBAC 171115Z AUTO 26013KT 10SM BKN070 OVC085 M04/M04 A2980 RMK AO2
KBAC 171055Z AUTO 27012KT 10SM BKN080 OVC100 M04/M04 A2981 RMK AO2
KBAC 171035Z AUTO 28011KT 10SM BKN100 BKN120 M04/M04 A2981 RMK AO2
KBAC 171015Z AUTO 28008KT 9SM BKN110 M04/M04 A2981 RMK AO2
KBAC 170955Z AUTO 27009KT 9SM BKN110 M04/M04 A2982 RMK AO2
KBAC 170935Z AUTO 26012KT 9SM FEW110 M04/M04 A2982 RMK AO2
KBAC 170915Z AUTO 26012KT 8SM CLR M04/M04 A2983 RMK AO2
KBAC 170855Z AUTO 26012KT 9SM CLR M04/M04 A2984 RMK AO2
KBAC 170835Z AUTO 25010KT 8SM CLR M04/M04 A2984 RMK AO2
KBAC 170815Z AUTO 24007KT 9SM CLR M04/M04 A2984 RMK AO2
KBAC 170755Z AUTO 23007KT 10SM SCT021 M03/M03 A2985 RMK AO2
KBAC 170735Z AUTO 23007KT 10SM OVC019 M01/M01 A2985 RMK AO2
KBAC 170715Z AUTO 23006KT 10SM OVC020 M01/M01 A2986 RMK AO2
KBAC 170655Z AUTO 25008KT 10SM OVC018 M01/M01 A2987 RMK AO2
KBAC 170635Z AUTO 26008KT 10SM OVC017 M02/M02 A2987 RMK AO2
KBAC 170615Z AUTO 25008KT 10SM OVC022 M02/M03 A2988 RMK AO2
KBAC 170555Z AUTO 24008KT 10SM OVC022 M02/M03 A2988 RMK AO2
KBAC 170535Z AUTO 24009KT 10SM OVC021 M02/M03 A2989 RMK AO2
KBAC 170515Z AUTO 25010KT 10SM OVC020 M02/M02 A2990 RMK AO2
KBAC 170455Z AUTO 25010KT 10SM M02/M02 A2991 RMK AO2
KBAC 170435Z AUTO 24009KT 10SM M02/M02 A2991 RMK AO2
KBAC 170415Z AUTO 24006KT 10SM M03/M03 A2991 RMK AO2
KBAC 170355Z AUTO 23007KT 10SM M03/M03 A2991 RMK AO2
KBAC 170335Z AUTO 24004KT 10SM OVC029 M03/M03 A2992 RMK AO2
KBAC 170315Z AUTO 00000KT 10SM OVC026 M03/M03 A2994 RMK AO2
KBAC 170255Z AUTO 26005KT 10SM OVC024 M03/M03 A2995 RMK AO2
KBAC 170235Z AUTO 28004KT 10SM OVC024 M03/M03 A2995 RMK AO2
KBAC 170215Z AUTO 27005KT 10SM OVC025 M04/M04 A2995 RMK AO2
KBAC 170155Z AUTO 28005KT 10SM OVC024 M04/M04 A2996 RMK AO2
KBAC 170135Z AUTO 00000KT 10SM FEW011 OVC026 M04/M04 A2995 RMK AO2
KBAC 170115Z AUTO 30004KT 10SM FEW010 BKN014 OVC027 M04/M04 A2995 RMK AO2
KBAC 170055Z AUTO 29006KT 10SM OVC015 M04/M04 A2995 RMK AO2
KBAC 170035Z AUTO 29005KT 10SM BKN015 OVC030 M04/M04 A2994 RMK AO2
KBAC 170015Z AUTO 32005KT 10SM BKN014 OVC032 M04/M04 A2993 RMK AO2
KBAC 162355Z AUTO 32005KT 10SM BKN016 OVC020 M03/M04 A2994 RMK AO2
KBAC 162335Z AUTO 34006KT 10SM OVC020 M03/M04 A2995 RMK AO2
KBAC 162315Z AUTO 33011KT 10SM -SN BKN023 OVC032 M03/M05 A2995 RMK AO2